Terminal Aerodrome Forecast
Issued by NWS Louisville, KY

Home | Current Version | Previous Version | Text Only | Print | Product List | Glossary On
Versions: 1 2 3 4 5 6 7 8 9 10 11 12 13 14 15 16 17
000
FTUS43 KLMK 270520
TAFBWG
TAF
KBWG 270520Z 2706/2806 VRB03KT P6SM OVC090
     FM271000 11003KT P6SM VCSH OVC035
     FM271400 16007KT P6SM -SHRA BKN035
     FM271600 19010KT P6SM BKN040=

USA.gov is the U.S. government's official web portal to all federal, state and local government web resources and services.